createdAt,value
2019-03-18T00:02:05.517Z,99736.44
2019-03-18T00:06:12.441Z,99743.16
2019-03-18T00:10:19.391Z,99746.12
2019-03-18T00:14:26.266Z,99750.05
2019-03-18T00:18:34.158Z,99750.67
2019-03-18T00:22:40.970Z,99753.97
2019-03-18T00:26:49.570Z,99746.56
2019-03-18T00:30:56.565Z,99750.00
2019-03-18T00:35:03.522Z,99752.64
2019-03-18T00:39:10.783Z,99753.92
2019-03-18T00:43:17.649Z,99758.51
2019-03-18T00:47:24.612Z,99760.97
2019-03-18T00:51:31.482Z,99764.73
2019-03-18T00:55:38.331Z,99772.25
2019-03-18T00:59:45.233Z,99773.88
2019-03-18T01:03:52.102Z,99778.12
2019-03-18T01:07:59.060Z,99767.65
2019-03-18T01:12:05.944Z,99772.05
2019-03-18T01:16:12.837Z,99773.65
2019-03-18T01:20:19.795Z,99761.67
2019-03-18T01:24:26.663Z,99770.38
2019-03-18T01:28:33.473Z,99768.91
2019-03-18T01:32:40.321Z,99768.22
2019-03-18T01:36:47.152Z,99756.14
2019-03-18T01:40:53.987Z,99759.72
2019-03-18T01:45:00.880Z,99755.34
2019-03-18T01:49:07.770Z,99756.80
2019-03-18T01:53:14.662Z,99759.27
2019-03-18T01:57:21.494Z,99766.81
2019-03-18T02:01:28.326Z,99771.38
2019-03-18T02:05:35.245Z,99786.61
2019-03-18T02:09:42.039Z,99787.41
2019-03-18T02:13:48.888Z,99789.53
2019-03-18T02:17:56.870Z,99784.77
2019-03-18T02:22:03.697Z,99781.83
2019-03-18T02:26:10.694Z,99776.75
2019-03-18T02:30:17.671Z,99771.20
2019-03-18T02:34:24.608Z,99779.70
2019-03-18T02:38:31.494Z,99780.00
2019-03-18T02:42:39.403Z,99782.81
2019-03-18T02:46:47.345Z,99793.28
2019-03-18T02:50:54.219Z,99797.20
2019-03-18T02:55:02.155Z,99804.75
2019-03-18T02:59:11.387Z,99802.32
2019-03-18T03:03:18.284Z,99808.58
2019-03-18T03:07:26.278Z,99802.84
2019-03-18T03:11:34.435Z,99797.13
2019-03-18T03:15:41.578Z,99803.84
2019-03-18T03:19:48.456Z,99814.41
2019-03-18T03:23:55.275Z,99821.27
2019-03-18T03:28:03.911Z,99830.59
2019-03-18T03:32:10.721Z,99836.21
2019-03-18T03:36:17.715Z,99827.16
2019-03-18T03:40:24.652Z,99844.36
2019-03-18T03:44:31.544Z,99847.78
2019-03-18T03:48:38.443Z,99852.43
2019-03-18T03:52:45.368Z,99856.52
2019-03-18T03:56:53.527Z,99852.28
2019-03-18T04:01:00.454Z,99856.23
2019-03-18T04:05:07.522Z,99863.08
2019-03-18T04:09:14.405Z,99862.73
2019-03-18T04:13:21.402Z,99869.63
2019-03-18T04:17:28.203Z,99865.39
2019-03-18T04:21:35.071Z,99871.45
2019-03-18T04:25:41.859Z,99874.42
2019-03-18T04:29:48.680Z,99881.64
2019-03-18T04:33:55.570Z,99879.35
2019-03-18T04:38:05.414Z,99882.64
2019-03-18T04:42:12.289Z,99872.68
2019-03-18T04:46:19.159Z,99875.12
2019-03-18T04:50:27.374Z,99870.08
2019-03-18T04:54:34.513Z,99890.03
2019-03-18T04:58:41.331Z,99900.38
2019-03-18T05:02:48.322Z,99895.62
2019-03-18T05:06:57.106Z,99892.56
2019-03-18T05:11:04.052Z,99905.34
2019-03-18T05:15:11.773Z,99908.43
2019-03-18T05:19:19.016Z,99920.76
2019-03-18T05:23:26.237Z,99925.34
2019-03-18T05:27:33.171Z,99923.03
2019-03-18T05:31:40.310Z,99930.27
2019-03-18T05:35:47.335Z,99935.34
2019-03-18T05:39:54.251Z,99934.55
2019-03-18T05:44:02.355Z,99935.22
2019-03-18T05:48:09.474Z,99946.48
2019-03-18T05:52:19.782Z,99946.95
2019-03-18T05:57:26.746Z,99960.84
2019-03-18T06:01:23.552Z,99969.06
2019-03-18T06:05:34.345Z,99960.23
2019-03-18T06:09:41.170Z,99968.71
2019-03-18T06:13:48.090Z,99966.59
2019-03-18T06:17:56.689Z,99957.12
2019-03-18T06:22:03.631Z,99973.52
2019-03-18T06:26:10.637Z,99979.75
2019-03-18T06:30:18.038Z,99986.95
2019-03-18T06:34:25.478Z,99986.66
2019-03-18T06:38:32.732Z,100002.39
2019-03-18T06:42:40.380Z,100002.84
2019-03-18T06:46:47.393Z,100011.30
2019-03-18T06:50:54.496Z,100016.84
2019-03-18T06:55:01.658Z,100012.94
2019-03-18T06:59:08.858Z,100021.31
2019-03-18T07:03:15.758Z,100002.63
2019-03-18T07:07:22.566Z,100005.41
2019-03-18T07:11:29.672Z,100000.85
2019-03-18T07:15:36.641Z,100017.91
2019-03-18T07:19:43.728Z,100013.67
2019-03-18T07:23:50.664Z,100009.55
2019-03-18T07:27:57.915Z,100026.42
2019-03-18T07:32:06.195Z,100027.77
2019-03-18T07:36:14.392Z,100034.16
2019-03-18T07:40:21.351Z,100037.79
2019-03-18T07:44:28.125Z,100044.53
2019-03-18T07:48:34.913Z,100052.73
2019-03-18T07:52:41.902Z,100068.65
2019-03-18T07:56:48.731Z,100079.33
2019-03-18T08:00:55.782Z,100078.83
2019-03-18T08:05:02.769Z,100082.42
2019-03-18T08:09:10.990Z,100083.94
2019-03-18T08:13:20.479Z,100093.10
2019-03-18T08:17:27.527Z,100102.46
2019-03-18T08:21:34.400Z,100118.05
2019-03-18T08:25:41.292Z,100120.02
2019-03-18T08:29:48.156Z,100133.00
2019-03-18T08:33:55.135Z,100143.67
2019-03-18T08:38:01.973Z,100133.02
2019-03-18T08:42:08.913Z,100151.06
2019-03-18T08:46:15.727Z,100147.12
2019-03-18T08:50:22.849Z,100147.61
2019-03-18T08:54:29.734Z,100148.28
2019-03-18T08:58:36.633Z,100159.92
2019-03-18T09:02:43.468Z,100155.51
2019-03-18T09:06:50.387Z,100167.34
2019-03-18T09:10:57.376Z,100168.48
2019-03-18T09:15:05.616Z,100173.21
2019-03-18T09:19:12.606Z,100167.59
2019-03-18T09:23:19.580Z,100162.84
2019-03-18T09:27:27.457Z,100174.23
2019-03-18T09:31:36.423Z,100178.50
2019-03-18T09:35:43.405Z,100185.41
2019-03-18T09:39:50.337Z,100189.11
2019-03-18T09:43:57.365Z,100187.89
2019-03-18T09:48:04.389Z,100196.16
2019-03-18T09:52:11.227Z,100195.93
2019-03-18T09:56:18.180Z,100209.91
2019-03-18T10:00:25.045Z,100211.16
2019-03-18T10:04:31.932Z,100214.23
2019-03-18T10:08:38.820Z,100226.66
2019-03-18T10:12:45.712Z,100220.39
2019-03-18T10:16:52.654Z,100229.59
2019-03-18T10:20:59.581Z,100228.42
2019-03-18T10:25:06.850Z,100240.59
2019-03-18T10:29:13.981Z,100242.09
2019-03-18T10:33:20.871Z,100240.98
2019-03-18T10:37:27.885Z,100251.59
2019-03-18T10:41:37.854Z,100247.14
2019-03-18T10:45:44.943Z,100242.78
2019-03-18T10:49:52.152Z,100248.80
2019-03-18T10:53:59.421Z,100242.62
2019-03-18T10:58:06.338Z,100253.83
2019-03-18T11:02:13.279Z,100257.21
2019-03-18T11:06:20.300Z,100253.94
2019-03-18T11:10:27.289Z,100254.14
2019-03-18T11:14:34.202Z,100257.98
2019-03-18T11:18:41.020Z,100252.00
2019-03-18T11:22:47.953Z,100258.52
2019-03-18T11:26:55.432Z,100256.34
2019-03-18T11:31:02.466Z,100254.64
2019-03-18T11:35:10.257Z,100254.68
2019-03-18T11:39:17.189Z,100272.91
2019-03-18T11:43:24.233Z,100290.80
2019-03-18T11:47:31.238Z,100294.16
2019-03-18T11:51:38.301Z,100286.88
2019-03-18T11:55:45.197Z,100282.19
2019-03-18T11:59:52.082Z,100284.70
2019-03-18T12:03:58.947Z,100282.62
2019-03-18T12:08:05.865Z,100280.41
2019-03-18T12:12:27.418Z,100279.70
2019-03-18T12:16:36.191Z,100276.41
2019-03-18T12:20:43.255Z,100277.92
2019-03-18T12:24:50.289Z,100267.63
2019-03-18T12:28:57.217Z,100283.30
2019-03-18T12:33:04.202Z,100278.52
2019-03-18T12:37:11.091Z,100270.05
2019-03-18T12:41:18.257Z,100272.26
2019-03-18T12:45:25.892Z,100260.83
2019-03-18T12:49:32.862Z,100268.16
2019-03-18T12:53:39.766Z,100282.57
2019-03-18T12:57:46.557Z,100278.20
2019-03-18T13:01:53.579Z,100266.81
2019-03-18T13:06:00.512Z,100264.50
2019-03-18T13:10:10.191Z,100258.91
2019-03-18T13:14:17.079Z,100261.72
2019-03-18T13:18:23.839Z,100263.05
2019-03-18T13:22:31.871Z,100266.01
2019-03-18T13:26:38.695Z,100259.64
2019-03-18T13:30:45.637Z,100267.30
2019-03-18T13:34:52.537Z,100273.06
2019-03-18T13:38:59.337Z,100283.09
2019-03-18T13:43:06.216Z,100290.23
2019-03-18T13:47:13.047Z,100282.45
2019-03-18T13:51:21.228Z,100282.80
2019-03-18T13:55:28.354Z,100286.09
2019-03-18T13:59:35.359Z,100280.17
2019-03-18T14:03:42.166Z,100274.18
2019-03-18T14:07:59.368Z,100277.64
2019-03-18T14:11:57.957Z,100283.98
2019-03-18T14:16:04.919Z,100276.92
2019-03-18T14:20:14.085Z,100277.03
2019-03-18T14:24:21.005Z,100288.77
2019-03-18T14:28:27.849Z,100288.70
2019-03-18T14:32:34.798Z,100290.85
2019-03-18T14:36:41.686Z,100283.61
2019-03-18T14:40:48.576Z,100283.20
2019-03-18T14:44:55.537Z,100281.67
2019-03-18T14:49:02.537Z,100283.00
2019-03-18T14:53:10.676Z,100282.79
2019-03-18T14:57:17.666Z,100276.27
2019-03-18T15:01:24.745Z,100289.54
2019-03-18T15:05:31.806Z,100288.61
2019-03-18T15:09:38.744Z,100294.25
2019-03-18T15:13:46.936Z,100290.79
2019-03-18T15:17:54.140Z,100289.92
2019-03-18T15:22:01.129Z,100286.91
2019-03-18T15:26:18.488Z,100299.19
2019-03-18T15:30:26.255Z,100311.66
2019-03-18T15:34:33.605Z,100325.22
2019-03-18T15:38:41.940Z,100341.12
2019-03-18T15:42:48.930Z,100352.79
2019-03-18T15:47:00.754Z,100359.66
2019-03-18T15:51:09.134Z,100350.72
2019-03-18T15:55:16.158Z,100339.00
2019-03-18T15:59:23.135Z,100337.66
2019-03-18T16:03:30.019Z,100335.83
2019-03-18T16:07:37.008Z,100340.19
2019-03-18T16:11:43.927Z,100343.75
2019-03-18T16:15:54.708Z,100348.19
2019-03-18T16:20:02.001Z,100345.28
2019-03-18T16:24:08.881Z,100351.65
2019-03-18T16:28:15.768Z,100355.58
2019-03-18T16:32:22.653Z,100354.85
2019-03-18T16:36:30.122Z,100361.71
2019-03-18T16:40:37.129Z,100368.91
2019-03-18T16:44:45.893Z,100365.13
2019-03-18T16:48:56.162Z,100371.27
2019-03-18T16:53:03.260Z,100380.89
2019-03-18T16:57:10.080Z,100379.95
2019-03-18T17:01:28.937Z,100380.98
2019-03-18T17:05:36.501Z,100391.66
2019-03-18T17:09:43.324Z,100398.34
2019-03-18T17:13:50.099Z,100404.25
2019-03-18T17:17:58.234Z,100412.66
2019-03-18T17:22:05.220Z,100415.69
2019-03-18T17:26:12.118Z,100413.07
2019-03-18T17:30:19.479Z,100425.39
2019-03-18T17:34:26.296Z,100434.94
2019-03-18T17:38:33.291Z,100451.22
2019-03-18T17:42:40.186Z,100451.92
2019-03-18T17:46:47.242Z,100453.29
2019-03-18T17:50:54.278Z,100461.89
2019-03-18T17:55:01.199Z,100474.09
2019-03-18T17:59:09.545Z,100484.98
2019-03-18T18:03:18.626Z,100488.95
2019-03-18T18:07:27.860Z,100492.58
2019-03-18T18:11:37.314Z,100494.25
2019-03-18T18:15:44.203Z,100500.86
2019-03-18T18:19:51.382Z,100506.14
2019-03-18T18:23:59.865Z,100508.44
2019-03-18T18:28:06.819Z,100507.95
2019-03-18T18:32:13.872Z,100515.69
2019-03-18T18:36:20.835Z,100522.59
2019-03-18T18:40:32.405Z,100520.96
2019-03-18T18:44:39.865Z,100532.97
2019-03-18T18:48:46.827Z,100533.77
2019-03-18T18:52:53.902Z,100541.52
2019-03-18T18:57:01.735Z,100551.39
2019-03-18T19:01:09.731Z,100547.91
2019-03-18T19:05:17.388Z,100560.23
2019-03-18T19:09:24.717Z,100566.95
2019-03-18T19:13:31.750Z,100571.63
2019-03-18T19:17:38.729Z,100580.48
2019-03-18T19:21:47.345Z,100585.38
2019-03-18T19:25:54.511Z,100584.86
2019-03-18T19:30:08.640Z,100587.70
2019-03-18T19:34:15.972Z,100598.23
2019-03-18T19:38:25.649Z,100599.34
2019-03-18T19:42:32.880Z,100602.80
2019-03-18T19:46:40.076Z,100606.06
2019-03-18T19:50:46.948Z,100619.52
2019-03-18T19:54:54.045Z,100618.17
2019-03-18T19:59:04.309Z,100618.48
2019-03-18T20:03:11.149Z,100624.89
2019-03-18T20:07:19.335Z,100634.29
2019-03-18T20:11:26.293Z,100637.91
2019-03-18T20:15:33.255Z,100631.98
2019-03-18T20:19:40.162Z,100635.61
2019-03-18T20:23:47.495Z,100642.19
2019-03-18T20:27:55.143Z,100641.39
2019-03-18T20:32:02.125Z,100640.92
2019-03-18T20:36:09.198Z,100642.62
2019-03-18T20:40:17.811Z,100646.55
2019-03-18T20:44:24.798Z,100657.73
2019-03-18T20:48:31.877Z,100664.99
2019-03-18T20:52:38.950Z,100661.54
2019-03-18T20:56:45.990Z,100672.12
2019-03-18T21:00:53.163Z,100671.02
2019-03-18T21:05:00.767Z,100674.81
2019-03-18T21:09:08.928Z,100677.96
2019-03-18T21:13:17.187Z,100683.82
2019-03-18T21:17:24.330Z,100690.70
2019-03-18T21:21:31.563Z,100696.74
2019-03-18T21:25:38.504Z,100705.72
2019-03-18T21:29:45.430Z,100704.87
2019-03-18T21:33:52.346Z,100707.67
2019-03-18T21:38:00.323Z,100706.38
2019-03-18T21:42:07.272Z,100714.21
2019-03-18T21:46:18.512Z,100719.23
2019-03-18T21:50:25.653Z,100723.34
2019-03-18T21:54:34.386Z,100726.76
2019-03-18T21:58:43.611Z,100732.06
2019-03-18T22:02:52.132Z,100741.27
2019-03-18T22:06:59.068Z,100736.30
2019-03-18T22:11:05.962Z,100735.34
2019-03-18T22:15:14.111Z,100731.56
2019-03-18T22:19:20.947Z,100736.44
2019-03-18T22:23:27.834Z,100739.63
2019-03-18T22:27:34.656Z,100747.52
2019-03-18T22:31:41.589Z,100744.12
2019-03-18T22:35:50.640Z,100749.00
2019-03-18T22:39:57.550Z,100746.64
2019-03-18T22:44:04.474Z,100756.27
2019-03-18T22:48:11.470Z,100751.22
2019-03-18T22:52:21.526Z,100756.14
2019-03-18T22:56:28.389Z,100751.20
2019-03-18T23:00:44.386Z,100759.52
2019-03-18T23:04:51.341Z,100759.61
2019-03-18T23:08:58.211Z,100763.73
2019-03-18T23:13:05.158Z,100764.98
2019-03-18T23:17:11.974Z,100763.65
2019-03-18T23:21:18.901Z,100770.49
2019-03-18T23:25:26.097Z,100769.77
2019-03-18T23:29:33.250Z,100768.60
2019-03-18T23:33:40.153Z,100767.99
2019-03-18T23:37:47.132Z,100773.48
2019-03-18T23:41:54.209Z,100776.04
2019-03-18T23:46:01.114Z,100784.09
2019-03-18T23:50:08.550Z,100781.69
2019-03-18T23:54:15.827Z,100784.44
2019-03-18T23:58:23.030Z,100789.24
